SWA3792 KPHX-KELP
Flight info
| Callsign | SWA3792 |
|---|---|
| Flight time | 0h 50m |
| Altitude | 37000 |
| Route | ECLPS1 PHASE TEEES MOLLY5 |
| Aircraft | B737/M-SADE2E3GIJ4RWZ/LB1D1 |
Departure
| Time | 2026-04-22 01:08 |
|---|---|
| Airport | Phoenix Sky Harbor International Airport (KPHX) |
Arrival
| Time | 2026-04-22 01:58 |
|---|---|
| Airport | El Paso International Airport (KELP) |
| Time | Latitude | Longitude | Altitude | Speed | Heading |
|---|---|---|---|---|---|
| 2026-04-22 00:00 | 33.43354 | -112.00262 | 1123 ft | 0 kts | 46° |
| 2026-04-22 00:56 | 33.43341 | -112.00278 | 1116 ft | 4 kts | 46° |
| 2026-04-22 00:57 | 33.43323 | -112.00300 | 1123 ft | 3 kts | 46° |
| 2026-04-22 00:57 | 33.43308 | -112.00320 | 1123 ft | 4 kts | 53° |
| 2026-04-22 00:57 | 33.43293 | -112.00347 | 1123 ft | 4 kts | 65° |
| 2026-04-22 00:57 | 33.43284 | -112.00377 | 1119 ft | 4 kts | 81° |
| 2026-04-22 00:58 | 33.43282 | -112.00409 | 1114 ft | 4 kts | 94° |
| 2026-04-22 00:58 | 33.43284 | -112.00436 | 1123 ft | 0 kts | 91° |
| 2026-04-22 01:02 | 33.43284 | -112.00431 | 1123 ft | 2 kts | 92° |
| 2026-04-22 01:02 | 33.43270 | -112.00396 | 1123 ft | 6 kts | 135° |
| 2026-04-22 01:02 | 33.43231 | -112.00370 | 1123 ft | 6 kts | 142° |
| 2026-04-22 01:03 | 33.43214 | -112.00320 | 1119 ft | 7 kts | 94° |
| 2026-04-22 01:03 | 33.43212 | -112.00244 | 1124 ft | 11 kts | 88° |
| 2026-04-22 01:03 | 33.43214 | -112.00133 | 1124 ft | 15 kts | 91° |
| 2026-04-22 01:03 | 33.43214 | -111.99992 | 1123 ft | 18 kts | 89° |
| 2026-04-22 01:04 | 33.43214 | -111.99851 | 1123 ft | 16 kts | 91° |
| 2026-04-22 01:04 | 33.43214 | -111.99727 | 1123 ft | 15 kts | 90° |
| 2026-04-22 01:04 | 33.43214 | -111.99607 | 1123 ft | 14 kts | 90° |
| 2026-04-22 01:04 | 33.43213 | -111.99503 | 1122 ft | 12 kts | 91° |
| 2026-04-22 01:05 | 33.43213 | -111.99402 | 1122 ft | 12 kts | 90° |
| 2026-04-22 01:05 | 33.43175 | -111.99345 | 1115 ft | 7 kts | 168° |
| 2026-04-22 01:05 | 33.43147 | -111.99345 | 1122 ft | 1 kts | 180° |
| 2026-04-22 01:05 | 33.43108 | -111.99356 | 1118 ft | 7 kts | 226° |
| 2026-04-22 01:06 | 33.43104 | -111.99376 | 1122 ft | 0 kts | 267° |
| 2026-04-22 01:07 | 33.43104 | -111.99378 | 1122 ft | 1 kts | 267° |
| 2026-04-22 01:07 | 33.43104 | -111.99506 | 1122 ft | 45 kts | 270° |
| 2026-04-22 01:08 | 33.43105 | -112.00181 | 1124 ft | 114 kts | 270° |
| 2026-04-22 01:08 | 33.43111 | -112.01358 | 1154 ft | 165 kts | 270° |
| 2026-04-22 01:08 | 33.43109 | -112.02741 | 1810 ft | 167 kts | 269° |
| 2026-04-22 01:08 | 33.43053 | -112.04145 | 2575 ft | 170 kts | 269° |
| 2026-04-22 01:09 | 33.43010 | -112.05699 | 2885 ft | 201 kts | 269° |
| 2026-04-22 01:09 | 33.42840 | -112.07472 | 3113 ft | 229 kts | 252° |
| 2026-04-22 01:09 | 33.42236 | -112.09355 | 3437 ft | 253 kts | 248° |
| 2026-04-22 01:09 | 33.41598 | -112.11364 | 4130 ft | 262 kts | 248° |
| 2026-04-22 01:10 | 33.40969 | -112.13397 | 4926 ft | 265 kts | 248° |
| 2026-04-22 01:10 | 33.40213 | -112.15404 | 5778 ft | 266 kts | 233° |
| 2026-04-22 01:10 | 33.38860 | -112.16902 | 6689 ft | 268 kts | 210° |
| 2026-04-22 01:10 | 33.37127 | -112.17724 | 7785 ft | 271 kts | 193° |
| 2026-04-22 01:11 | 33.35224 | -112.17693 | 8852 ft | 278 kts | 169° |
| 2026-04-22 01:11 | 33.33344 | -112.17070 | 9899 ft | 283 kts | 166° |
| 2026-04-22 01:11 | 33.31419 | -112.16375 | 10679 ft | 298 kts | 166° |
| 2026-04-22 01:11 | 33.29372 | -112.15495 | 10932 ft | 329 kts | 153° |
| 2026-04-22 01:12 | 33.27523 | -112.13780 | 11677 ft | 343 kts | 139° |
| 2026-04-22 01:12 | 33.25822 | -112.11753 | 12636 ft | 346 kts | 137° |
| 2026-04-22 01:12 | 33.24232 | -112.09563 | 13545 ft | 355 kts | 125° |
| 2026-04-22 01:12 | 33.23228 | -112.06829 | 14401 ft | 364 kts | 111° |
| 2026-04-22 01:13 | 33.22449 | -112.03924 | 15225 ft | 371 kts | 110° |
| 2026-04-22 01:13 | 33.21699 | -112.00947 | 16017 ft | 378 kts | 109° |
| 2026-04-22 01:13 | 33.20943 | -111.97917 | 16832 ft | 383 kts | 109° |
| 2026-04-22 01:13 | 33.20173 | -111.94865 | 17645 ft | 387 kts | 109° |
| 2026-04-22 01:14 | 33.19383 | -111.91774 | 18399 ft | 392 kts | 109° |
| 2026-04-22 01:14 | 33.18580 | -111.88678 | 19089 ft | 398 kts | 110° |
| 2026-04-22 01:14 | 33.17748 | -111.85496 | 19770 ft | 404 kts | 110° |
| 2026-04-22 01:14 | 33.16903 | -111.82280 | 20472 ft | 409 kts | 110° |
| 2026-04-22 01:15 | 33.16042 | -111.79014 | 21113 ft | 415 kts | 109° |
| 2026-04-22 01:15 | 33.15170 | -111.75710 | 21738 ft | 420 kts | 109° |
| 2026-04-22 01:15 | 33.14287 | -111.72368 | 22347 ft | 425 kts | 109° |
| 2026-04-22 01:15 | 33.13390 | -111.68978 | 22937 ft | 430 kts | 109° |
| 2026-04-22 01:16 | 33.12482 | -111.65552 | 23514 ft | 435 kts | 109° |
| 2026-04-22 01:16 | 33.11565 | -111.62088 | 24064 ft | 440 kts | 109° |
| 2026-04-22 01:16 | 33.10641 | -111.58594 | 24584 ft | 445 kts | 109° |
| 2026-04-22 01:16 | 33.09703 | -111.55067 | 25137 ft | 448 kts | 109° |
| 2026-04-22 01:17 | 33.08757 | -111.51515 | 25682 ft | 452 kts | 109° |
| 2026-04-22 01:17 | 33.07801 | -111.47930 | 26212 ft | 455 kts | 109° |
| 2026-04-22 01:17 | 33.06739 | -111.44370 | 26665 ft | 457 kts | 117° |
| 2026-04-22 01:17 | 33.05116 | -111.41104 | 27118 ft | 459 kts | 125° |
| 2026-04-22 01:18 | 33.03370 | -111.37964 | 27608 ft | 461 kts | 126° |
| 2026-04-22 01:18 | 33.01569 | -111.34790 | 27959 ft | 465 kts | 126° |
| 2026-04-22 01:18 | 32.99741 | -111.31578 | 28348 ft | 469 kts | 126° |
| 2026-04-22 01:18 | 32.97916 | -111.28346 | 28806 ft | 472 kts | 126° |
| 2026-04-22 01:19 | 32.96094 | -111.25078 | 29248 ft | 475 kts | 125° |
| 2026-04-22 01:19 | 32.94273 | -111.21780 | 29678 ft | 478 kts | 125° |
| 2026-04-22 01:19 | 32.92444 | -111.18456 | 30062 ft | 481 kts | 125° |
| 2026-04-22 01:19 | 32.90605 | -111.15110 | 30440 ft | 485 kts | 125° |
| 2026-04-22 01:20 | 32.88753 | -111.11745 | 30792 ft | 488 kts | 125° |
| 2026-04-22 01:20 | 32.86885 | -111.08354 | 31127 ft | 491 kts | 125° |
| 2026-04-22 01:20 | 32.85007 | -111.04949 | 31453 ft | 494 kts | 125° |
| 2026-04-22 01:20 | 32.83115 | -111.01525 | 31828 ft | 495 kts | 125° |
| 2026-04-22 01:21 | 32.81227 | -110.98111 | 32292 ft | 493 kts | 125° |
| 2026-04-22 01:21 | 32.79347 | -110.94716 | 32781 ft | 492 kts | 125° |
| 2026-04-22 01:21 | 32.77488 | -110.91361 | 33175 ft | 492 kts | 125° |
| 2026-04-22 01:21 | 32.75601 | -110.87958 | 33512 ft | 493 kts | 124° |
| 2026-04-22 01:22 | 32.73711 | -110.84553 | 33849 ft | 493 kts | 124° |
| 2026-04-22 01:22 | 32.71822 | -110.81154 | 34219 ft | 493 kts | 124° |
| 2026-04-22 01:22 | 32.69934 | -110.77758 | 34602 ft | 492 kts | 124° |
| 2026-04-22 01:22 | 32.68044 | -110.74361 | 34986 ft | 491 kts | 124° |
| 2026-04-22 01:23 | 32.66159 | -110.70979 | 35367 ft | 490 kts | 125° |
| 2026-04-22 01:23 | 32.64397 | -110.67522 | 35651 ft | 492 kts | 115° |
| 2026-04-22 01:23 | 32.63295 | -110.63680 | 35920 ft | 492 kts | 105° |
| 2026-04-22 01:23 | 32.62444 | -110.59747 | 36250 ft | 492 kts | 103° |
| 2026-04-22 01:24 | 32.61640 | -110.55808 | 36530 ft | 492 kts | 103° |
| 2026-04-22 01:24 | 32.60836 | -110.51869 | 36837 ft | 491 kts | 104° |
| 2026-04-22 01:24 | 32.60014 | -110.47936 | 37115 ft | 491 kts | 104° |
| 2026-04-22 01:24 | 32.59169 | -110.44000 | 37072 ft | 493 kts | 104° |
| 2026-04-22 01:25 | 32.57455 | -110.36232 | 37072 ft | 480 kts | 105° |
| 2026-04-22 01:25 | 32.55755 | -110.28630 | 37084 ft | 481 kts | 105° |
| 2026-04-22 01:26 | 32.54034 | -110.20949 | 37076 ft | 483 kts | 105° |
| 2026-04-22 01:26 | 32.52307 | -110.13250 | 37068 ft | 483 kts | 105° |
| 2026-04-22 01:27 | 32.50575 | -110.05549 | 37066 ft | 485 kts | 104° |
| 2026-04-22 01:27 | 32.48836 | -109.97833 | 37063 ft | 485 kts | 105° |
| 2026-04-22 01:28 | 32.47085 | -109.90101 | 37067 ft | 485 kts | 105° |
| 2026-04-22 01:28 | 32.45335 | -109.82382 | 37070 ft | 485 kts | 105° |
| 2026-04-22 01:29 | 32.43599 | -109.74668 | 37061 ft | 484 kts | 102° |
| 2026-04-22 01:29 | 32.42466 | -109.66808 | 37073 ft | 483 kts | 97° |
| 2026-04-22 01:30 | 32.41610 | -109.58934 | 37062 ft | 483 kts | 97° |
| 2026-04-22 01:30 | 32.40686 | -109.51107 | 37053 ft | 482 kts | 98° |
| 2026-04-22 01:31 | 32.39690 | -109.43256 | 37056 ft | 481 kts | 98° |
| 2026-04-22 01:31 | 32.38676 | -109.35427 | 37059 ft | 480 kts | 98° |
| 2026-04-22 01:32 | 32.37664 | -109.27600 | 37072 ft | 480 kts | 98° |
| 2026-04-22 01:32 | 32.36652 | -109.19795 | 37071 ft | 479 kts | 98° |
| 2026-04-22 01:33 | 32.35686 | -109.12005 | 37071 ft | 479 kts | 96° |
| 2026-04-22 01:33 | 32.34937 | -109.04238 | 37070 ft | 479 kts | 96° |
| 2026-04-22 01:34 | 32.34213 | -108.96406 | 37083 ft | 478 kts | 96° |
| 2026-04-22 01:34 | 32.33460 | -108.88607 | 37084 ft | 477 kts | 96° |
| 2026-04-22 01:35 | 32.32685 | -108.80818 | 37099 ft | 477 kts | 96° |
| 2026-04-22 01:35 | 32.31902 | -108.73027 | 37087 ft | 477 kts | 96° |
| 2026-04-22 01:36 | 32.31115 | -108.65248 | 37083 ft | 476 kts | 96° |
| 2026-04-22 01:36 | 32.30329 | -108.57525 | 37088 ft | 476 kts | 97° |
| 2026-04-22 01:37 | 32.29537 | -108.49750 | 37091 ft | 476 kts | 97° |
| 2026-04-22 01:37 | 32.28739 | -108.41993 | 37104 ft | 476 kts | 97° |
| 2026-04-22 01:38 | 32.27934 | -108.34224 | 37103 ft | 475 kts | 97° |
| 2026-04-22 01:38 | 32.27128 | -108.26463 | 37110 ft | 476 kts | 97° |
| 2026-04-22 01:39 | 32.26280 | -108.18769 | 37116 ft | 475 kts | 97° |
| 2026-04-22 01:39 | 32.25384 | -108.11020 | 37083 ft | 476 kts | 98° |
| 2026-04-22 01:40 | 32.24930 | -108.07094 | 36429 ft | 484 kts | 98° |
| 2026-04-22 01:40 | 32.24475 | -108.03151 | 35759 ft | 483 kts | 97° |
| 2026-04-22 01:40 | 32.24175 | -108.00540 | 35238 ft | 483 kts | 97° |
| 2026-04-22 01:40 | 32.23721 | -107.96595 | 34440 ft | 484 kts | 98° |
| 2026-04-22 01:41 | 32.23266 | -107.92651 | 33603 ft | 486 kts | 98° |
| 2026-04-22 01:41 | 32.22659 | -107.87405 | 32429 ft | 488 kts | 97° |
| 2026-04-22 01:41 | 32.22346 | -107.84711 | 31862 ft | 488 kts | 97° |
| 2026-04-22 01:41 | 32.21887 | -107.80762 | 31237 ft | 483 kts | 97° |
| 2026-04-22 01:42 | 32.21436 | -107.76886 | 30625 ft | 478 kts | 97° |
| 2026-04-22 01:42 | 32.20988 | -107.73019 | 30009 ft | 473 kts | 97° |
| 2026-04-22 01:42 | 32.20544 | -107.69181 | 29373 ft | 469 kts | 97° |
| 2026-04-22 01:42 | 32.20104 | -107.65376 | 28719 ft | 464 kts | 97° |
| 2026-04-22 01:43 | 32.19667 | -107.61617 | 28070 ft | 460 kts | 98° |
| 2026-04-22 01:43 | 32.19234 | -107.57897 | 27414 ft | 456 kts | 97° |
| 2026-04-22 01:43 | 32.18803 | -107.54207 | 26768 ft | 451 kts | 98° |
| 2026-04-22 01:43 | 32.18375 | -107.50557 | 26120 ft | 446 kts | 98° |
| 2026-04-22 01:44 | 32.17956 | -107.46992 | 25488 ft | 442 kts | 98° |
| 2026-04-22 01:44 | 32.17536 | -107.43418 | 24841 ft | 437 kts | 98° |
| 2026-04-22 01:44 | 32.17118 | -107.39882 | 24202 ft | 432 kts | 98° |
| 2026-04-22 01:44 | 32.16703 | -107.36380 | 23565 ft | 428 kts | 98° |
| 2026-04-22 01:45 | 32.16293 | -107.32921 | 22981 ft | 422 kts | 98° |
| 2026-04-22 01:45 | 32.15886 | -107.29505 | 22354 ft | 418 kts | 98° |
| 2026-04-22 01:45 | 32.15484 | -107.26128 | 21731 ft | 413 kts | 98° |
| 2026-04-22 01:45 | 32.15084 | -107.22786 | 21112 ft | 409 kts | 98° |
| 2026-04-22 01:46 | 32.14688 | -107.19480 | 20493 ft | 405 kts | 98° |
| 2026-04-22 01:46 | 32.14294 | -107.16200 | 19877 ft | 401 kts | 98° |
| 2026-04-22 01:46 | 32.13910 | -107.13002 | 19273 ft | 397 kts | 98° |
| 2026-04-22 01:46 | 32.13524 | -107.09792 | 18662 ft | 394 kts | 98° |
| 2026-04-22 01:47 | 32.13139 | -107.06607 | 18057 ft | 390 kts | 98° |
| 2026-04-22 01:47 | 32.12758 | -107.03456 | 17534 ft | 384 kts | 98° |
| 2026-04-22 01:47 | 32.12383 | -107.00370 | 16908 ft | 381 kts | 98° |
| 2026-04-22 01:47 | 32.11986 | -106.97280 | 16304 ft | 379 kts | 101° |
| 2026-04-22 01:48 | 32.11393 | -106.94264 | 15720 ft | 375 kts | 105° |
| 2026-04-22 01:48 | 32.10702 | -106.91305 | 15124 ft | 372 kts | 106° |
| 2026-04-22 01:48 | 32.10028 | -106.88416 | 14551 ft | 368 kts | 106° |
| 2026-04-22 01:48 | 32.09375 | -106.85510 | 13952 ft | 366 kts | 105° |
| 2026-04-22 01:49 | 32.08738 | -106.82611 | 13353 ft | 364 kts | 105° |
| 2026-04-22 01:49 | 32.08086 | -106.79740 | 12749 ft | 362 kts | 107° |
| 2026-04-22 01:49 | 32.07406 | -106.76890 | 12143 ft | 360 kts | 107° |
| 2026-04-22 01:49 | 32.06728 | -106.74070 | 11538 ft | 356 kts | 107° |
| 2026-04-22 01:50 | 32.06051 | -106.71266 | 10933 ft | 354 kts | 107° |
| 2026-04-22 01:50 | 32.05371 | -106.68490 | 10533 ft | 347 kts | 107° |
| 2026-04-22 01:50 | 32.04714 | -106.65820 | 10328 ft | 329 kts | 107° |
| 2026-04-22 01:50 | 32.04100 | -106.63314 | 10172 ft | 308 kts | 107° |
| 2026-04-22 01:51 | 32.03521 | -106.60965 | 10034 ft | 288 kts | 107° |
| 2026-04-22 01:51 | 32.02977 | -106.58748 | 9750 ft | 278 kts | 108° |
| 2026-04-22 01:51 | 32.02460 | -106.56653 | 9454 ft | 269 kts | 108° |
| 2026-04-22 01:51 | 32.01949 | -106.54579 | 9352 ft | 259 kts | 108° |
| 2026-04-22 01:52 | 32.01453 | -106.52573 | 9243 ft | 259 kts | 108° |
| 2026-04-22 01:52 | 32.00949 | -106.50530 | 9139 ft | 261 kts | 108° |
| 2026-04-22 01:52 | 32.00429 | -106.48475 | 9025 ft | 264 kts | 111° |
| 2026-04-22 01:52 | 31.99610 | -106.46507 | 8699 ft | 268 kts | 122° |
| 2026-04-22 01:53 | 31.98642 | -106.44636 | 8406 ft | 267 kts | 123° |
| 2026-04-22 01:53 | 31.97679 | -106.42777 | 8106 ft | 265 kts | 122° |
| 2026-04-22 01:53 | 31.96739 | -106.40921 | 7813 ft | 263 kts | 122° |
| 2026-04-22 01:53 | 31.95821 | -106.39084 | 7550 ft | 257 kts | 122° |
| 2026-04-22 01:54 | 31.94930 | -106.37290 | 7250 ft | 250 kts | 122° |
| 2026-04-22 01:54 | 31.94069 | -106.35550 | 6962 ft | 239 kts | 122° |
| 2026-04-22 01:54 | 31.93261 | -106.33910 | 6686 ft | 223 kts | 122° |
| 2026-04-22 01:54 | 31.92506 | -106.32397 | 6433 ft | 207 kts | 125° |
| 2026-04-22 01:55 | 31.91614 | -106.31166 | 6136 ft | 190 kts | 145° |
| 2026-04-22 01:55 | 31.90528 | -106.30444 | 6011 ft | 171 kts | 162° |
| 2026-04-22 01:55 | 31.89410 | -106.30128 | 5998 ft | 162 kts | 181° |
| 2026-04-22 01:55 | 31.88308 | -106.30215 | 5996 ft | 154 kts | 197° |
| 2026-04-22 01:56 | 31.87326 | -106.30604 | 6042 ft | 143 kts | 209° |
| 2026-04-22 01:56 | 31.86550 | -106.31240 | 5711 ft | 134 kts | 227° |
| 2026-04-22 01:56 | 31.85880 | -106.32040 | 5361 ft | 145 kts | 231° |
| 2026-04-22 01:56 | 31.85203 | -106.32948 | 5022 ft | 147 kts | 235° |
| 2026-04-22 01:57 | 31.84565 | -106.33860 | 4720 ft | 147 kts | 233° |
| 2026-04-22 01:57 | 31.83910 | -106.34770 | 4475 ft | 144 kts | 232° |
| 2026-04-22 01:57 | 31.83266 | -106.35657 | 4254 ft | 141 kts | 233° |
| 2026-04-22 01:57 | 31.82622 | -106.36558 | 4069 ft | 145 kts | 230° |
| 2026-04-22 01:58 | 31.81976 | -106.37448 | 3949 ft | 137 kts | 231° |
| 2026-04-22 01:58 | 31.81469 | -106.38156 | 3946 ft | 83 kts | 229° |
| 2026-04-22 01:58 | 31.81226 | -106.38495 | 3947 ft | 36 kts | 230° |
| 2026-04-22 01:58 | 31.81071 | -106.38710 | 3949 ft | 33 kts | 229° |
| 2026-04-22 01:59 | 31.80931 | -106.38904 | 3947 ft | 29 kts | 229° |
| 2026-04-22 01:59 | 31.80817 | -106.39044 | 3946 ft | 22 kts | 215° |
| 2026-04-22 01:59 | 31.80686 | -106.39110 | 3946 ft | 20 kts | 199° |
| 2026-04-22 01:59 | 31.80558 | -106.39165 | 3946 ft | 20 kts | 199° |
| 2026-04-22 02:00 | 31.80430 | -106.39220 | 3946 ft | 19 kts | 200° |
| 2026-04-22 02:00 | 31.80305 | -106.39274 | 3946 ft | 19 kts | 199° |
| 2026-04-22 02:00 | 31.80202 | -106.39350 | 3946 ft | 17 kts | 216° |
| 2026-04-22 02:00 | 31.80146 | -106.39424 | 3946 ft | 11 kts | 257° |
| 2026-04-22 02:01 | 31.80128 | -106.39485 | 3946 ft | 8 kts | 216° |
| 2026-04-22 02:01 | 31.80075 | -106.39475 | 3946 ft | 8 kts | 161° |
| 2026-04-22 02:01 | 31.80049 | -106.39465 | 3946 ft | 1 kts | 161° |
| 2026-04-22 02:01 | 31.80047 | -106.39464 | 3946 ft | 0 kts | 161° |